createdAt,value
2018-11-07T00:00:01.842Z,144
2018-11-07T00:00:14.288Z,144
2018-11-07T00:00:26.757Z,144
2018-11-07T00:00:39.170Z,144
2018-11-07T00:00:51.732Z,144
2018-11-07T00:01:04.139Z,144
2018-11-07T00:01:16.565Z,144
2018-11-07T00:01:28.958Z,144
2018-11-07T00:01:41.367Z,144
2018-11-07T00:01:53.950Z,144
2018-11-07T00:02:06.388Z,144
2018-11-07T00:02:18.838Z,144
2018-11-07T00:02:31.234Z,144
2018-11-07T00:02:43.924Z,144
2018-11-07T00:02:57.341Z,144
2018-11-07T00:03:10.626Z,144
2018-11-07T00:03:23.022Z,144
2018-11-07T00:03:35.450Z,144
2018-11-07T00:03:47.848Z,144
2018-11-07T00:04:00.263Z,144
2018-11-07T00:04:12.727Z,144
2018-11-07T00:04:25.146Z,144
2018-11-07T00:04:37.547Z,144
2018-11-07T00:04:50.068Z,144
2018-11-07T00:05:02.521Z,144
2018-11-07T00:05:14.924Z,144
2018-11-07T00:05:27.334Z,144
2018-11-07T00:05:39.756Z,144
2018-11-07T00:05:52.185Z,144
2018-11-07T00:06:04.595Z,144
2018-11-07T00:06:17.169Z,144
2018-11-07T00:06:29.553Z,140
2018-11-07T00:06:41.937Z,140
2018-11-07T00:06:54.339Z,140
2018-11-07T00:07:06.791Z,140
2018-11-07T00:07:19.330Z,140
2018-11-07T00:07:31.749Z,140
2018-11-07T00:07:44.217Z,140
2018-11-07T00:07:57.576Z,140
2018-11-07T00:08:12.416Z,140
2018-11-07T00:08:27.397Z,140
2018-11-07T00:08:40.823Z,140
2018-11-07T00:08:53.241Z,140
2018-11-07T00:09:05.666Z,140
2018-11-07T00:09:18.085Z,140
2018-11-07T00:09:30.498Z,139
2018-11-07T00:09:42.915Z,135
2018-11-07T00:09:55.360Z,135
2018-11-07T00:10:07.777Z,135
2018-11-07T00:10:20.177Z,135
2018-11-07T00:10:32.596Z,135
2018-11-07T00:10:45.005Z,135
2018-11-07T00:10:57.437Z,135
2018-11-07T00:11:09.843Z,135
2018-11-07T00:11:22.235Z,135
2018-11-07T00:11:34.673Z,135
2018-11-07T00:11:47.069Z,135
2018-11-07T00:11:59.451Z,135
2018-11-07T00:12:11.861Z,135
2018-11-07T00:12:24.279Z,135
2018-11-07T00:12:36.690Z,135
2018-11-07T00:12:49.093Z,135
2018-11-07T00:13:01.505Z,135
2018-11-07T00:13:13.958Z,135
2018-11-07T00:13:26.340Z,135
2018-11-07T00:13:38.744Z,135
2018-11-07T00:13:51.197Z,135
2018-11-07T00:14:04.052Z,135
2018-11-07T00:14:16.715Z,135
2018-11-07T00:14:29.139Z,135
2018-11-07T00:14:41.545Z,135
2018-11-07T00:14:53.970Z,135
2018-11-07T00:15:06.398Z,135
2018-11-07T00:15:18.819Z,135
2018-11-07T00:15:31.224Z,135
2018-11-07T00:15:43.696Z,135
2018-11-07T00:15:56.090Z,135
2018-11-07T00:16:08.490Z,135
2018-11-07T00:16:20.958Z,135
2018-11-07T00:16:33.411Z,135
2018-11-07T00:16:45.794Z,135
2018-11-07T00:16:58.177Z,135
2018-11-07T00:17:10.576Z,135
2018-11-07T00:17:22.968Z,135
2018-11-07T00:17:35.387Z,135
2018-11-07T00:17:47.786Z,135
2018-11-07T00:18:00.174Z,135
2018-11-07T00:18:12.559Z,135
2018-11-07T00:18:24.966Z,135
2018-11-07T00:18:37.356Z,135
2018-11-07T00:18:49.791Z,135
2018-11-07T00:19:02.187Z,135
2018-11-07T00:19:14.597Z,135
2018-11-07T00:19:27.300Z,135
2018-11-07T00:19:40.235Z,135
2018-11-07T00:19:52.718Z,135
2018-11-07T00:20:05.129Z,135
2018-11-07T00:20:17.892Z,135
2018-11-07T00:20:30.516Z,135
2018-11-07T00:20:43.058Z,135
2018-11-07T00:20:55.463Z,135
2018-11-07T00:21:07.914Z,135
2018-11-07T00:21:20.313Z,135
2018-11-07T00:21:32.700Z,135
2018-11-07T00:21:45.114Z,135
2018-11-07T00:21:57.525Z,135
2018-11-07T00:22:10.055Z,135
2018-11-07T00:22:22.432Z,135
2018-11-07T00:22:34.835Z,135
2018-11-07T00:22:47.252Z,135
2018-11-07T00:22:59.629Z,135
2018-11-07T00:23:12.053Z,135
2018-11-07T00:23:24.468Z,135
2018-11-07T00:23:36.909Z,135
2018-11-07T00:23:49.326Z,135
2018-11-07T00:24:01.893Z,135
2018-11-07T00:24:14.287Z,135
2018-11-07T00:24:26.710Z,135
2018-11-07T00:24:39.324Z,135
2018-11-07T00:24:51.753Z,135
2018-11-07T00:25:04.171Z,135
2018-11-07T00:25:16.659Z,135
2018-11-07T00:25:29.075Z,135
2018-11-07T00:25:41.472Z,135
2018-11-07T00:25:53.925Z,135
2018-11-07T00:26:06.384Z,135
2018-11-07T00:26:19.373Z,135
2018-11-07T00:26:33.253Z,135
2018-11-07T00:26:45.711Z,135
2018-11-07T00:26:58.141Z,135
2018-11-07T00:27:10.551Z,135
2018-11-07T00:27:22.954Z,135
2018-11-07T00:27:35.334Z,135
2018-11-07T00:27:47.727Z,135
2018-11-07T00:28:00.123Z,135
2018-11-07T00:28:12.809Z,135
2018-11-07T00:28:25.212Z,135
2018-11-07T00:28:37.657Z,135
2018-11-07T00:28:50.073Z,135
2018-11-07T00:29:02.750Z,135
2018-11-07T00:29:15.168Z,135
2018-11-07T00:29:27.571Z,135
2018-11-07T00:29:39.977Z,135
2018-11-07T00:29:52.395Z,135
2018-11-07T00:30:05.537Z,135
2018-11-07T00:30:19.570Z,135
2018-11-07T00:30:32.225Z,135
2018-11-07T00:30:44.687Z,135
2018-11-07T00:30:57.131Z,135
2018-11-07T00:31:09.549Z,135
2018-11-07T00:31:21.973Z,135
2018-11-07T00:31:34.369Z,135
2018-11-07T00:31:46.760Z,135
2018-11-07T00:31:59.150Z,135
2018-11-07T00:32:11.627Z,135
2018-11-07T00:32:24.098Z,135
2018-11-07T00:32:36.518Z,135
2018-11-07T00:32:48.992Z,135
2018-11-07T00:33:01.407Z,135
2018-11-07T00:33:13.857Z,135
2018-11-07T00:33:26.273Z,135
2018-11-07T00:33:38.663Z,135
2018-11-07T00:33:51.079Z,135
2018-11-07T00:34:03.485Z,135
2018-11-07T00:34:15.977Z,135
2018-11-07T00:34:28.379Z,135
2018-11-07T00:34:40.782Z,135
2018-11-07T00:34:53.426Z,135
2018-11-07T00:35:06.823Z,135
2018-11-07T00:35:20.571Z,135
2018-11-07T00:35:32.981Z,135
2018-11-07T00:35:45.376Z,135
2018-11-07T00:35:57.781Z,135
2018-11-07T00:36:10.326Z,135
2018-11-07T00:36:22.734Z,135
2018-11-07T00:36:35.125Z,135
2018-11-07T00:36:47.524Z,135
2018-11-07T00:37:00.387Z,135
2018-11-07T00:37:12.831Z,135
2018-11-07T00:37:25.244Z,135
2018-11-07T00:37:37.685Z,135
2018-11-07T00:37:50.420Z,135
2018-11-07T00:38:02.828Z,135
2018-11-07T00:38:15.255Z,135
2018-11-07T00:38:27.648Z,135
2018-11-07T00:38:40.050Z,135
2018-11-07T00:38:52.478Z,135
2018-11-07T00:39:04.890Z,135
2018-11-07T00:39:17.306Z,135
2018-11-07T00:39:29.702Z,135
2018-11-07T00:39:42.118Z,135
2018-11-07T00:39:54.524Z,135
2018-11-07T00:40:06.958Z,135
2018-11-07T00:40:19.388Z,135
2018-11-07T00:40:31.859Z,135
2018-11-07T00:40:44.266Z,135
2018-11-07T00:40:56.685Z,135
2018-11-07T00:41:09.088Z,135
2018-11-07T00:41:21.491Z,135
2018-11-07T00:41:33.897Z,135
2018-11-07T00:41:46.286Z,135
2018-11-07T00:41:58.675Z,135
2018-11-07T00:42:11.321Z,135
2018-11-07T00:42:24.888Z,135
2018-11-07T00:42:38.039Z,135
2018-11-07T00:42:50.439Z,135
2018-11-07T00:43:02.876Z,135
2018-11-07T00:43:15.726Z,135
2018-11-07T00:43:28.137Z,135
2018-11-07T00:43:40.560Z,135
2018-11-07T00:43:52.965Z,135
2018-11-07T00:44:05.347Z,135
2018-11-07T00:44:17.754Z,135
2018-11-07T00:44:30.176Z,135
2018-11-07T00:44:42.577Z,135
2018-11-07T00:44:54.986Z,135
2018-11-07T00:45:07.396Z,135
2018-11-07T00:45:19.833Z,135
2018-11-07T00:45:32.239Z,135
2018-11-07T00:45:44.638Z,135
2018-11-07T00:45:57.047Z,135
2018-11-07T00:46:09.453Z,135
2018-11-07T00:46:21.881Z,135
2018-11-07T00:46:34.292Z,135
2018-11-07T00:46:46.735Z,135
2018-11-07T00:46:59.154Z,135
2018-11-07T00:47:11.571Z,135
2018-11-07T00:47:24.114Z,135
2018-11-07T00:47:36.493Z,135
2018-11-07T00:47:48.884Z,135
2018-11-07T00:48:01.315Z,135
2018-11-07T00:48:13.720Z,135
2018-11-07T00:48:26.115Z,135
2018-11-07T00:48:38.512Z,135
2018-11-07T00:48:50.941Z,135
2018-11-07T00:49:03.380Z,135
2018-11-07T00:49:15.790Z,135
2018-11-07T00:49:28.206Z,135
2018-11-07T00:49:40.595Z,135
2018-11-07T00:49:53.185Z,135
2018-11-07T00:50:05.566Z,135
2018-11-07T00:50:18.023Z,135
2018-11-07T00:50:30.441Z,135
2018-11-07T00:50:42.851Z,135
2018-11-07T00:50:55.247Z,135
2018-11-07T00:51:07.645Z,135
2018-11-07T00:51:20.039Z,135
2018-11-07T00:51:32.440Z,135
2018-11-07T00:51:44.866Z,135
2018-11-07T00:51:57.285Z,135
2018-11-07T00:52:09.713Z,135
2018-11-07T00:52:22.112Z,135
2018-11-07T00:52:34.532Z,135
2018-11-07T00:52:46.939Z,135
2018-11-07T00:52:59.326Z,135
2018-11-07T00:53:11.717Z,135
2018-11-07T00:53:24.171Z,135
2018-11-07T00:53:36.566Z,135
2018-11-07T00:53:48.993Z,135
2018-11-07T00:54:01.400Z,135
2018-11-07T00:54:13.820Z,135
2018-11-07T00:54:26.206Z,135
2018-11-07T00:54:38.772Z,135
2018-11-07T00:54:51.183Z,135
2018-11-07T00:55:03.595Z,135
2018-11-07T00:55:16.043Z,135
2018-11-07T00:55:28.462Z,135
2018-11-07T00:55:40.912Z,135
2018-11-07T00:55:53.315Z,135
2018-11-07T00:56:05.721Z,135
2018-11-07T00:56:18.111Z,135
2018-11-07T00:56:30.519Z,135
2018-11-07T00:56:42.922Z,135
2018-11-07T00:56:55.328Z,135
2018-11-07T00:57:07.729Z,135
2018-11-07T00:57:20.160Z,135
2018-11-07T00:57:32.559Z,135
2018-11-07T00:57:44.995Z,135
2018-11-07T00:57:57.866Z,135
2018-11-07T00:58:11.649Z,135
2018-11-07T00:58:24.639Z,135
2018-11-07T00:58:37.037Z,135
2018-11-07T00:58:49.472Z,135
2018-11-07T00:59:01.879Z,135
2018-11-07T00:59:14.287Z,135
2018-11-07T00:59:26.668Z,135
2018-11-07T00:59:39.081Z,135
2018-11-07T00:59:51.491Z,135
2018-11-07T01:00:03.978Z,135
2018-11-07T01:00:16.384Z,135
2018-11-07T01:00:28.809Z,135
2018-11-07T01:00:41.234Z,135
2018-11-07T01:00:53.662Z,135
2018-11-07T01:01:06.076Z,135
2018-11-07T01:01:18.466Z,135
2018-11-07T01:01:30.858Z,135
2018-11-07T01:01:43.268Z,135
2018-11-07T01:01:55.806Z,135
2018-11-07T01:02:08.236Z,135
2018-11-07T01:02:20.665Z,135
2018-11-07T01:02:33.075Z,135
2018-11-07T01:02:45.471Z,135
2018-11-07T01:02:57.879Z,135
2018-11-07T01:03:10.289Z,135
2018-11-07T01:03:22.693Z,135
2018-11-07T01:03:35.122Z,135
2018-11-07T01:03:47.522Z,135
2018-11-07T01:03:59.903Z,135
2018-11-07T01:04:12.319Z,135
2018-11-07T01:04:24.735Z,135
2018-11-07T01:04:37.123Z,135
2018-11-07T01:04:49.678Z,135
2018-11-07T01:05:02.081Z,135
2018-11-07T01:05:14.500Z,135
2018-11-07T01:05:26.951Z,135
2018-11-07T01:05:39.383Z,135
2018-11-07T01:05:51.781Z,135
2018-11-07T01:06:04.233Z,135
2018-11-07T01:06:16.620Z,135
2018-11-07T01:06:29.033Z,135
2018-11-07T01:06:42.335Z,135
2018-11-07T01:06:54.735Z,135
2018-11-07T01:07:07.136Z,135
2018-11-07T01:07:19.671Z,135
2018-11-07T01:07:32.116Z,135
2018-11-07T01:07:44.518Z,135
2018-11-07T01:07:56.981Z,135
2018-11-07T01:08:09.401Z,135
2018-11-07T01:08:21.798Z,135
2018-11-07T01:08:34.212Z,135
2018-11-07T01:08:46.956Z,135
2018-11-07T01:09:00.206Z,135
2018-11-07T01:09:12.609Z,135
2018-11-07T01:09:25.595Z,135
2018-11-07T01:09:39.637Z,135
2018-11-07T01:09:52.636Z,135
2018-11-07T01:10:05.069Z,135
2018-11-07T01:10:17.489Z,135
2018-11-07T01:10:29.898Z,135
2018-11-07T01:10:44.050Z,135
2018-11-07T01:10:56.460Z,135
2018-11-07T01:11:08.861Z,135
2018-11-07T01:11:21.294Z,135
2018-11-07T01:11:33.729Z,135
2018-11-07T01:11:46.138Z,135
2018-11-07T01:11:58.580Z,135
2018-11-07T01:12:11.055Z,135
2018-11-07T01:12:23.489Z,135
2018-11-07T01:12:35.883Z,135
2018-11-07T01:12:48.318Z,135
2018-11-07T01:13:00.720Z,135
2018-11-07T01:13:13.284Z,135
2018-11-07T01:13:25.691Z,135
2018-11-07T01:13:38.116Z,135
2018-11-07T01:13:50.492Z,135
2018-11-07T01:14:02.912Z,135
2018-11-07T01:14:15.348Z,135
2018-11-07T01:14:27.758Z,135
2018-11-07T01:14:40.143Z,135
2018-11-07T01:14:52.548Z,135
2018-11-07T01:15:04.940Z,135
2018-11-07T01:15:17.374Z,135
2018-11-07T01:15:29.767Z,135
2018-11-07T01:15:42.159Z,135
2018-11-07T01:15:54.552Z,135
2018-11-07T01:16:06.934Z,135
2018-11-07T01:16:19.359Z,135
2018-11-07T01:16:32.023Z,135
2018-11-07T01:16:45.387Z,135
2018-11-07T01:16:58.689Z,135
2018-11-07T01:17:11.127Z,135
2018-11-07T01:17:23.554Z,135
2018-11-07T01:17:35.956Z,135
2018-11-07T01:17:48.383Z,135
2018-11-07T01:18:00.785Z,135
2018-11-07T01:18:13.177Z,135
2018-11-07T01:18:25.555Z,135
2018-11-07T01:18:37.945Z,135
2018-11-07T01:18:50.332Z,135
2018-11-07T01:19:02.740Z,135
2018-11-07T01:19:15.174Z,135
2018-11-07T01:19:27.551Z,135
2018-11-07T01:19:39.945Z,135
2018-11-07T01:19:52.329Z,135
2018-11-07T01:20:04.724Z,135
2018-11-07T01:20:17.397Z,135
2018-11-07T01:20:29.799Z,135
2018-11-07T01:20:42.280Z,135
2018-11-07T01:20:54.657Z,135
2018-11-07T01:21:07.228Z,135
2018-11-07T01:21:19.631Z,135
2018-11-07T01:21:32.018Z,135
2018-11-07T01:21:44.416Z,135
2018-11-07T01:21:56.808Z,135
2018-11-07T01:22:09.429Z,135
2018-11-07T01:22:22.588Z,135
2018-11-07T01:22:35.442Z,135
2018-11-07T01:22:47.854Z,135
2018-11-07T01:23:00.283Z,135
2018-11-07T01:23:12.721Z,135
2018-11-07T01:23:25.248Z,135
2018-11-07T01:23:37.644Z,135
2018-11-07T01:23:50.054Z,135
2018-11-07T01:24:02.608Z,135
2018-11-07T01:24:15.000Z,135
2018-11-07T01:24:27.390Z,135
2018-11-07T01:24:39.979Z,135
2018-11-07T01:24:52.380Z,135
2018-11-07T01:25:04.796Z,135
2018-11-07T01:25:17.378Z,135
2018-11-07T01:25:29.787Z,135
2018-11-07T01:25:42.189Z,135
2018-11-07T01:25:54.587Z,135
2018-11-07T01:26:06.984Z,135
2018-11-07T01:26:19.395Z,135
2018-11-07T01:26:31.787Z,135
2018-11-07T01:26:44.179Z,135
2018-11-07T01:26:56.662Z,135
2018-11-07T01:27:09.067Z,135
2018-11-07T01:27:21.465Z,135
2018-11-07T01:27:33.903Z,135
2018-11-07T01:27:46.372Z,135
2018-11-07T01:27:58.851Z,135
2018-11-07T01:28:12.096Z,135
2018-11-07T01:28:26.058Z,135
2018-11-07T01:28:38.528Z,135
2018-11-07T01:28:50.904Z,135
2018-11-07T01:29:03.808Z,135
2018-11-07T01:29:16.230Z,135
2018-11-07T01:29:28.608Z,135
2018-11-07T01:29:41.030Z,135
2018-11-07T01:29:53.443Z,135
2018-11-07T01:30:05.845Z,135
2018-11-07T01:30:18.299Z,135
2018-11-07T01:30:30.715Z,135
2018-11-07T01:30:43.114Z,135
2018-11-07T01:30:55.501Z,135
2018-11-07T01:31:07.931Z,135
2018-11-07T01:31:20.329Z,135
2018-11-07T01:31:32.742Z,135
2018-11-07T01:31:45.145Z,135
2018-11-07T01:31:57.565Z,135
2018-11-07T01:32:10.200Z,135
2018-11-07T01:32:22.660Z,135
2018-11-07T01:32:35.060Z,135
2018-11-07T01:32:47.493Z,135
2018-11-07T01:32:59.911Z,135
2018-11-07T01:33:12.438Z,135
2018-11-07T01:33:24.836Z,135
2018-11-07T01:33:37.314Z,135
2018-11-07T01:33:49.721Z,135
2018-11-07T01:34:02.122Z,135
2018-11-07T01:34:14.522Z,135
2018-11-07T01:34:27.096Z,135
2018-11-07T01:34:39.488Z,135
2018-11-07T01:34:51.878Z,135
2018-11-07T01:35:04.291Z,135
2018-11-07T01:35:16.707Z,135
2018-11-07T01:35:29.107Z,135
2018-11-07T01:35:41.506Z,135
2018-11-07T01:35:53.907Z,135
2018-11-07T01:36:06.489Z,135
2018-11-07T01:36:18.877Z,135
2018-11-07T01:36:31.268Z,135
2018-11-07T01:36:43.656Z,135
2018-11-07T01:36:56.080Z,135
2018-11-07T01:37:08.480Z,135
2018-11-07T01:37:20.886Z,135
2018-11-07T01:37:33.342Z,135
2018-11-07T01:37:45.770Z,135
2018-11-07T01:37:58.179Z,135
2018-11-07T01:38:10.585Z,135
2018-11-07T01:38:22.994Z,135
2018-11-07T01:38:35.388Z,135
2018-11-07T01:38:47.771Z,135
2018-11-07T01:39:00.154Z,135
2018-11-07T01:39:12.575Z,135
2018-11-07T01:39:24.987Z,135
2018-11-07T01:39:37.412Z,135
2018-11-07T01:39:49.826Z,135
2018-11-07T01:40:02.234Z,135
2018-11-07T01:40:14.643Z,135
2018-11-07T01:40:27.055Z,135
2018-11-07T01:40:39.468Z,135
2018-11-07T01:40:52.015Z,135
2018-11-07T01:41:04.414Z,135
2018-11-07T01:41:16.819Z,135
2018-11-07T01:41:29.212Z,135
2018-11-07T01:41:41.614Z,135
2018-11-07T01:41:54.640Z,135
2018-11-07T01:42:08.354Z,135
2018-11-07T01:42:21.332Z,135
2018-11-07T01:42:33.760Z,135
2018-11-07T01:42:46.190Z,135
2018-11-07T01:42:58.601Z,135
2018-11-07T01:43:11.271Z,135
2018-11-07T01:43:23.668Z,135
2018-11-07T01:43:36.093Z,135
2018-11-07T01:43:48.507Z,135
2018-11-07T01:44:00.952Z,135
2018-11-07T01:44:13.378Z,135
2018-11-07T01:44:25.791Z,135
2018-11-07T01:44:38.199Z,135
2018-11-07T01:44:50.606Z,135
2018-11-07T01:45:02.994Z,135
2018-11-07T01:45:15.400Z,135
2018-11-07T01:45:27.795Z,135
2018-11-07T01:45:40.184Z,135
2018-11-07T01:45:52.587Z,135
2018-11-07T01:46:04.975Z,135
2018-11-07T01:46:17.364Z,135
2018-11-07T01:46:29.851Z,135
2018-11-07T01:46:42.288Z,135
2018-11-07T01:46:54.725Z,135
2018-11-07T01:47:07.123Z,135
2018-11-07T01:47:19.527Z,135
2018-11-07T01:47:32.013Z,135
2018-11-07T01:47:44.410Z,135
2018-11-07T01:47:56.845Z,135
2018-11-07T01:48:09.282Z,135
2018-11-07T01:48:21.694Z,135
2018-11-07T01:48:34.119Z,135
2018-11-07T01:48:46.531Z,135
2018-11-07T01:48:58.917Z,135
2018-11-07T01:49:11.331Z,135
2018-11-07T01:49:23.761Z,135
2018-11-07T01:49:36.162Z,135
2018-11-07T01:49:48.633Z,135
2018-11-07T01:50:01.031Z,135
2018-11-07T01:50:13.445Z,135
2018-11-07T01:50:25.831Z,135
2018-11-07T01:50:38.234Z,135
2018-11-07T01:50:50.637Z,135
2018-11-07T01:51:03.043Z,135
2018-11-07T01:51:15.477Z,134
2018-11-07T01:51:27.898Z,133
2018-11-07T01:51:40.310Z,133
2018-11-07T01:51:52.700Z,133
2018-11-07T01:52:05.094Z,133
2018-11-07T01:52:17.495Z,133
2018-11-07T01:52:29.971Z,133
2018-11-07T01:52:42.384Z,133
2018-11-07T01:52:54.913Z,133
2018-11-07T01:53:07.361Z,133
2018-11-07T01:53:19.777Z,133
2018-11-07T01:53:32.182Z,133
2018-11-07T01:53:44.571Z,133
2018-11-07T01:53:57.001Z,133
2018-11-07T01:54:09.432Z,133
2018-11-07T01:54:21.819Z,133
2018-11-07T01:54:34.222Z,133
2018-11-07T01:54:46.601Z,133
2018-11-07T01:54:59.018Z,133
2018-11-07T01:55:11.437Z,133
2018-11-07T01:55:23.853Z,133
2018-11-07T01:55:36.306Z,133
2018-11-07T01:55:48.709Z,133
2018-11-07T01:56:01.110Z,133
2018-11-07T01:56:13.515Z,133
2018-11-07T01:56:25.906Z,133
2018-11-07T01:56:38.295Z,133
2018-11-07T01:56:50.701Z,133
2018-11-07T01:57:03.110Z,133
2018-11-07T01:57:15.491Z,133
2018-11-07T01:57:27.891Z,133
2018-11-07T01:57:40.342Z,133
2018-11-07T01:57:52.733Z,133
2018-11-07T01:58:05.165Z,133
2018-11-07T01:58:17.558Z,133
2018-11-07T01:58:29.979Z,133
2018-11-07T01:58:42.411Z,133
2018-11-07T01:58:54.826Z,133
2018-11-07T01:59:07.246Z,133
2018-11-07T01:59:19.709Z,133
2018-11-07T01:59:32.134Z,133
2018-11-07T01:59:44.542Z,133
2018-11-07T01:59:56.931Z,133
2018-11-07T02:00:09.386Z,133
2018-11-07T02:00:21.819Z,133
2018-11-07T02:00:34.239Z,133
2018-11-07T02:00:46.666Z,133
2018-11-07T02:00:59.100Z,133
2018-11-07T02:01:11.526Z,133
2018-11-07T02:01:23.941Z,133
2018-11-07T02:01:36.374Z,133
2018-11-07T02:01:48.779Z,133
2018-11-07T02:02:01.352Z,133
2018-11-07T02:02:13.754Z,133
2018-11-07T02:02:26.185Z,133
2018-11-07T02:02:38.610Z,133
2018-11-07T02:02:51.046Z,133
2018-11-07T02:03:03.455Z,133
2018-11-07T02:03:15.864Z,133
2018-11-07T02:03:28.255Z,133
2018-11-07T02:03:40.660Z,133
2018-11-07T02:03:53.056Z,133
2018-11-07T02:04:05.463Z,133
2018-11-07T02:04:17.871Z,133
2018-11-07T02:04:30.294Z,133
2018-11-07T02:04:42.780Z,133
2018-11-07T02:04:55.181Z,133
2018-11-07T02:05:07.603Z,133
2018-11-07T02:05:20.021Z,133
2018-11-07T02:05:32.448Z,133
2018-11-07T02:05:44.853Z,133
2018-11-07T02:05:57.247Z,133
2018-11-07T02:06:09.666Z,133
2018-11-07T02:06:22.070Z,133
2018-11-07T02:06:34.476Z,133
2018-11-07T02:06:47.002Z,133
2018-11-07T02:06:59.411Z,133
2018-11-07T02:07:12.001Z,133
2018-11-07T02:07:24.405Z,133
2018-11-07T02:07:36.848Z,133
2018-11-07T02:07:49.232Z,133
2018-11-07T02:08:01.682Z,133
2018-11-07T02:08:14.105Z,133
2018-11-07T02:08:26.501Z,156
2018-11-07T02:08:38.920Z,156
2018-11-07T02:08:51.341Z,146
2018-11-07T02:09:03.714Z,146
2018-11-07T02:09:16.129Z,146
2018-11-07T02:09:28.574Z,146
2018-11-07T02:09:40.978Z,146
2018-11-07T02:09:53.390Z,146
2018-11-07T02:10:05.790Z,146
2018-11-07T02:10:18.222Z,146
2018-11-07T02:10:30.613Z,146
2018-11-07T02:10:43.019Z,146
2018-11-07T02:10:55.427Z,146
2018-11-07T02:11:07.888Z,146
2018-11-07T02:11:20.312Z,146
2018-11-07T02:11:32.711Z,146
2018-11-07T02:11:45.099Z,146
2018-11-07T02:11:57.543Z,146
2018-11-07T02:12:09.955Z,146
2018-11-07T02:12:22.433Z,146
2018-11-07T02:12:34.832Z,146
2018-11-07T02:12:47.231Z,146
2018-11-07T02:12:59.635Z,165
2018-11-07T02:13:12.041Z,153
2018-11-07T02:13:24.459Z,146
2018-11-07T02:13:36.869Z,142
2018-11-07T02:13:49.253Z,142
2018-11-07T02:14:01.645Z,142
2018-11-07T02:14:14.068Z,147
2018-11-07T02:14:26.464Z,151
2018-11-07T02:14:38.856Z,134
2018-11-07T02:14:51.291Z,150
2018-11-07T02:15:03.711Z,150
2018-11-07T02:15:16.108Z,150
2018-11-07T02:15:28.513Z,150
2018-11-07T02:15:40.910Z,150
2018-11-07T02:15:53.314Z,150
2018-11-07T02:16:05.720Z,150
2018-11-07T02:16:18.110Z,150
2018-11-07T02:16:30.495Z,150
2018-11-07T02:16:42.918Z,150
2018-11-07T02:16:55.335Z,150
2018-11-07T02:17:07.767Z,150
2018-11-07T02:17:20.213Z,150
2018-11-07T02:17:32.620Z,150
2018-11-07T02:17:45.048Z,150
2018-11-07T02:17:57.473Z,150
2018-11-07T02:18:09.860Z,150
2018-11-07T02:18:22.270Z,150
2018-11-07T02:18:34.684Z,150
2018-11-07T02:18:47.097Z,150
2018-11-07T02:18:59.488Z,150
2018-11-07T02:19:11.888Z,150
2018-11-07T02:19:24.299Z,150
2018-11-07T02:19:36.709Z,150
2018-11-07T02:19:49.099Z,150
2018-11-07T02:20:01.486Z,150
2018-11-07T02:20:14.004Z,150
2018-11-07T02:20:26.496Z,150
2018-11-07T02:20:38.881Z,150
2018-11-07T02:20:51.418Z,150
2018-11-07T02:21:03.833Z,150
2018-11-07T02:21:16.232Z,150
2018-11-07T02:21:28.640Z,150
2018-11-07T02:21:41.041Z,150
2018-11-07T02:21:53.500Z,150
2018-11-07T02:22:05.895Z,150
2018-11-07T02:22:18.516Z,150
2018-11-07T02:22:30.923Z,150
2018-11-07T02:22:43.347Z,150
2018-11-07T02:22:55.733Z,150
2018-11-07T02:23:08.154Z,150
2018-11-07T02:23:20.566Z,150
2018-11-07T02:23:32.979Z,150
2018-11-07T02:23:45.515Z,150
2018-11-07T02:23:57.923Z,150
2018-11-07T02:24:10.430Z,150
2018-11-07T02:24:22.829Z,150
2018-11-07T02:24:35.285Z,150
2018-11-07T02:24:47.853Z,150
2018-11-07T02:25:00.239Z,150
2018-11-07T02:25:12.760Z,150
2018-11-07T02:25:25.167Z,150
2018-11-07T02:25:37.581Z,150
2018-11-07T02:25:49.978Z,150
2018-11-07T02:26:02.388Z,150
2018-11-07T02:26:15.161Z,150
2018-11-07T02:26:28.592Z,150
2018-11-07T02:26:41.946Z,150
2018-11-07T02:26:54.352Z,150
2018-11-07T02:27:06.771Z,150
2018-11-07T02:27:19.169Z,150
2018-11-07T02:27:31.580Z,150
2018-11-07T02:27:44.014Z,150
2018-11-07T02:27:56.418Z,150
2018-11-07T02:28:09.017Z,150
2018-11-07T02:28:21.948Z,150
2018-11-07T02:28:34.383Z,150
2018-11-07T02:28:46.818Z,150
2018-11-07T02:28:59.367Z,150
2018-11-07T02:29:11.789Z,150
2018-11-07T02:29:24.205Z,150
2018-11-07T02:29:36.636Z,150
2018-11-07T02:29:49.045Z,150
2018-11-07T02:30:01.471Z,150
2018-11-07T02:30:13.988Z,150
2018-11-07T02:30:26.442Z,150
2018-11-07T02:30:38.879Z,150
2018-11-07T02:30:51.297Z,150
2018-11-07T02:31:03.704Z,150
2018-11-07T02:31:16.152Z,150
2018-11-07T02:31:28.546Z,150
2018-11-07T02:31:40.971Z,150
2018-11-07T02:31:53.415Z,150
2018-11-07T02:32:05.908Z,150
2018-11-07T02:32:18.353Z,150
2018-11-07T02:32:30.940Z,150
2018-11-07T02:32:43.338Z,150
2018-11-07T02:32:55.747Z,150
2018-11-07T02:33:08.373Z,150
2018-11-07T02:33:20.833Z,150
2018-11-07T02:33:33.247Z,150
2018-11-07T02:33:45.670Z,150
2018-11-07T02:33:58.087Z,150
2018-11-07T02:34:10.509Z,150
2018-11-07T02:34:23.109Z,150
2018-11-07T02:34:35.572Z,150
2018-11-07T02:34:47.989Z,150
2018-11-07T02:35:00.393Z,150
2018-11-07T02:35:12.901Z,150
2018-11-07T02:35:25.295Z,150
2018-11-07T02:35:37.733Z,150
2018-11-07T02:35:50.209Z,150
2018-11-07T02:36:02.758Z,150
2018-11-07T02:36:15.189Z,150
2018-11-07T02:36:27.634Z,150
2018-11-07T02:36:40.064Z,150
2018-11-07T02:36:53.197Z,150
2018-11-07T02:37:07.284Z,150
2018-11-07T02:37:20.272Z,150
2018-11-07T02:37:32.707Z,150
2018-11-07T02:37:45.157Z,150
2018-11-07T02:37:57.580Z,150
2018-11-07T02:38:09.995Z,150
2018-11-07T02:38:22.400Z,150
2018-11-07T02:38:34.902Z,150
2018-11-07T02:38:47.300Z,150
2018-11-07T02:38:59.706Z,150
2018-11-07T02:39:12.144Z,150
2018-11-07T02:39:24.566Z,150
2018-11-07T02:39:36.990Z,150
2018-11-07T02:39:49.411Z,150
2018-11-07T02:40:01.856Z,150
2018-11-07T02:40:14.316Z,150
2018-11-07T02:40:26.760Z,150
2018-11-07T02:40:39.206Z,150
2018-11-07T02:40:51.625Z,150
2018-11-07T02:41:04.055Z,150
2018-11-07T02:41:16.512Z,150
2018-11-07T02:41:28.900Z,150
2018-11-07T02:41:41.729Z,150
2018-11-07T02:41:55.863Z,150
2018-11-07T02:42:09.180Z,150
2018-11-07T02:42:21.647Z,150
2018-11-07T02:42:34.058Z,150
2018-11-07T02:42:46.469Z,150
2018-11-07T02:42:58.886Z,150
2018-11-07T02:43:11.450Z,150
2018-11-07T02:43:23.882Z,150
2018-11-07T02:43:36.329Z,150
2018-11-07T02:43:48.730Z,150
2018-11-07T02:44:01.156Z,150
2018-11-07T02:44:13.572Z,150
2018-11-07T02:44:25.980Z,150
2018-11-07T02:44:38.383Z,150
2018-11-07T02:44:50.815Z,150
2018-11-07T02:45:03.231Z,150
2018-11-07T02:45:15.693Z,150
2018-11-07T02:45:28.100Z,150
2018-11-07T02:45:40.545Z,150
2018-11-07T02:45:52.983Z,150
2018-11-07T02:46:05.428Z,150
2018-11-07T02:46:17.857Z,150
2018-11-07T02:46:30.279Z,150
2018-11-07T02:46:42.684Z,150
2018-11-07T02:46:55.173Z,150
2018-11-07T02:47:07.611Z,150
2018-11-07T02:47:20.025Z,150
2018-11-07T02:47:32.573Z,150
2018-11-07T02:47:45.001Z,150
2018-11-07T02:47:57.410Z,150
2018-11-07T02:48:09.829Z,150
2018-11-07T02:48:22.279Z,150
2018-11-07T02:48:34.700Z,150
2018-11-07T02:48:47.223Z,150
2018-11-07T02:48:59.630Z,150
2018-11-07T02:49:12.058Z,150
2018-11-07T02:49:24.493Z,150
2018-11-07T02:49:36.905Z,150
2018-11-07T02:49:49.834Z,150
2018-11-07T02:50:02.254Z,150
2018-11-07T02:50:14.817Z,150
2018-11-07T02:50:27.247Z,150
2018-11-07T02:50:39.659Z,150
2018-11-07T02:50:52.082Z,150
2018-11-07T02:51:04.582Z,150
2018-11-07T02:51:17.005Z,150
2018-11-07T02:51:29.402Z,150
2018-11-07T02:51:41.823Z,150
2018-11-07T02:51:54.259Z,150